sensor_id;sensor_type;location;lat;lon;timestamp;pressure;altitude;pressure_sealevel;temperature;humidity
5298;BME280;14738;42.668;23.250;2023-07-31T00:01:26;48414.13;;;-141.90;56.89
5298;BME280;14738;42.668;23.250;2023-07-31T00:03:51;48426.03;;;-141.90;57.04
5298;BME280;14738;42.668;23.250;2023-07-31T00:06:16;48394.28;;;-141.90;56.74
5298;BME280;14738;42.668;23.250;2023-07-31T00:08:42;48390.31;;;-141.90;57.11
5298;BME280;14738;42.668;23.250;2023-07-31T00:11:07;48380.38;;;-141.90;57.01
5298;BME280;14738;42.668;23.250;2023-07-31T00:13:33;48410.16;;;-141.90;56.39
5298;BME280;14738;42.668;23.250;2023-07-31T00:15:58;48402.22;;;-141.90;56.33
5298;BME280;14738;42.668;23.250;2023-07-31T00:18:24;48406.19;;;-141.90;57.73
5298;BME280;14738;42.668;23.250;2023-07-31T00:20:49;48414.13;;;-141.90;56.87
5298;BME280;14738;42.668;23.250;2023-07-31T00:23:15;48414.13;;;-141.90;59.04
5298;BME280;14738;42.668;23.250;2023-07-31T00:25:41;48394.28;;;-141.90;58.63
5298;BME280;14738;42.668;23.250;2023-07-31T00:28:07;48394.28;;;-141.90;58.44
5298;BME280;14738;42.668;23.250;2023-07-31T00:30:32;48378.38;;;-141.90;58.62
5298;BME280;14738;42.668;23.250;2023-07-31T00:32:58;48390.31;;;-141.90;58.73
5298;BME280;14738;42.668;23.250;2023-07-31T00:35:23;48392.28;;;-141.90;59.49
5298;BME280;14738;42.668;23.250;2023-07-31T00:37:49;48410.16;;;-141.90;58.73
5298;BME280;14738;42.668;23.250;2023-07-31T00:40:14;48394.28;;;-141.90;58.42
5298;BME280;14738;42.668;23.250;2023-07-31T00:42:39;48414.13;;;-141.90;59.06
5298;BME280;14738;42.668;23.250;2023-07-31T00:45:05;48388.31;;;-141.90;58.66
5298;BME280;14738;42.668;23.250;2023-07-31T00:47:31;48402.22;;;-141.90;59.04
5298;BME280;14738;42.668;23.250;2023-07-31T00:49:57;48408.16;;;-141.90;59.08
5298;BME280;14738;42.668;23.250;2023-07-31T00:52:22;48398.25;;;-141.90;59.47
5298;BME280;14738;42.668;23.250;2023-07-31T00:54:49;48414.13;;;-141.90;59.46
5298;BME280;14738;42.668;23.250;2023-07-31T00:57:14;48394.28;;;-141.90;60.00
5298;BME280;14738;42.668;23.250;2023-07-31T00:59:40;48410.16;;;-141.90;59.68
5298;BME280;14738;42.668;23.250;2023-07-31T01:02:06;48410.16;;;-141.90;59.46
5298;BME280;14738;42.668;23.250;2023-07-31T01:04:31;48386.34;;;-141.90;60.10
5298;BME280;14738;42.668;23.250;2023-07-31T01:07:25;48422.06;;;-141.90;73.07
5298;BME280;14738;42.668;23.250;2023-07-31T01:12:27;48386.34;;;-141.90;75.86
5298;BME280;14738;42.668;23.250;2023-07-31T01:17:31;48408.16;;;-141.90;75.56
5298;BME280;14738;42.668;23.250;2023-07-31T01:20:02;48400.22;;;-141.90;76.71
5298;BME280;14738;42.668;23.250;2023-07-31T01:25:21;48364.50;;;-141.90;86.07
5298;BME280;14738;42.668;23.250;2023-07-31T01:28:03;48386.34;;;-141.90;87.20
5298;BME280;14738;42.668;23.250;2023-07-31T01:30:32;48374.41;;;-141.90;88.54
5298;BME280;14738;42.668;23.250;2023-07-31T01:33:03;48374.41;;;-141.90;89.67
5298;BME280;14738;42.668;23.250;2023-07-31T01:35:36;48408.16;;;-141.90;91.48
5298;BME280;14738;42.668;23.250;2023-07-31T01:38:02;48398.25;;;-141.90;92.72
5298;BME280;14738;42.668;23.250;2023-07-31T01:40:28;48394.28;;;-141.90;93.12
5298;BME280;14738;42.668;23.250;2023-07-31T01:42:53;48394.28;;;-141.90;92.69
5298;BME280;14738;42.668;23.250;2023-07-31T01:45:18;48378.38;;;-141.90;93.60
5298;BME280;14738;42.668;23.250;2023-07-31T01:47:44;48390.31;;;-141.90;94.31
5298;BME280;14738;42.668;23.250;2023-07-31T01:50:09;48406.19;;;-141.90;94.59
5298;BME280;14738;42.668;23.250;2023-07-31T01:52:35;48396.25;;;-141.90;94.13
5298;BME280;14738;42.668;23.250;2023-07-31T01:55:00;48400.22;;;-141.90;93.94
5298;BME280;14738;42.668;23.250;2023-07-31T01:57:26;48394.28;;;-141.90;93.21
5298;BME280;14738;42.668;23.250;2023-07-31T01:59:51;48374.41;;;-141.90;93.52
5298;BME280;14738;42.668;23.250;2023-07-31T02:02:19;48382.34;;;-141.90;93.34
5298;BME280;14738;42.668;23.250;2023-07-31T02:04:44;48418.09;;;-141.90;93.54
5298;BME280;14738;42.668;23.250;2023-07-31T02:07:09;48402.22;;;-141.90;93.36
5298;BME280;14738;42.668;23.250;2023-07-31T02:09:35;48388.31;;;-141.90;92.36
5298;BME280;14738;42.668;23.250;2023-07-31T02:12:00;48414.13;;;-141.90;91.61
5298;BME280;14738;42.668;23.250;2023-07-31T02:14:26;48410.16;;;-141.90;92.03
5298;BME280;14738;42.668;23.250;2023-07-31T02:16:51;48420.09;;;-141.90;91.42
5298;BME280;14738;42.668;23.250;2023-07-31T02:19:17;48414.13;;;-141.90;91.33
5298;BME280;14738;42.668;23.250;2023-07-31T02:21:42;48426.03;;;-141.90;91.32
5298;BME280;14738;42.668;23.250;2023-07-31T02:24:07;48418.09;;;-141.90;90.46
5298;BME280;14738;42.668;23.250;2023-07-31T02:26:33;48398.25;;;-141.90;90.30
5298;BME280;14738;42.668;23.250;2023-07-31T02:28:58;48406.19;;;-141.90;90.25
5298;BME280;14738;42.668;23.250;2023-07-31T02:31:24;48416.09;;;-141.90;90.60
5298;BME280;14738;42.668;23.250;2023-07-31T02:33:49;48394.28;;;-141.90;91.13
5298;BME280;14738;42.668;23.250;2023-07-31T02:36:14;48390.31;;;-141.90;90.19
5298;BME280;14738;42.668;23.250;2023-07-31T02:38:40;48414.13;;;-141.90;90.69
5298;BME280;14738;42.668;23.250;2023-07-31T02:41:05;48426.03;;;-141.90;90.00
5298;BME280;14738;42.668;23.250;2023-07-31T02:43:31;48418.09;;;-141.90;90.44
5298;BME280;14738;42.668;23.250;2023-07-31T02:45:56;48402.22;;;-141.90;90.09
5298;BME280;14738;42.668;23.250;2023-07-31T02:48:22;48412.13;;;-141.90;89.67
5298;BME280;14738;42.668;23.250;2023-07-31T02:50:48;48382.34;;;-141.90;88.57
5298;BME280;14738;42.668;23.250;2023-07-31T02:53:13;48412.13;;;-141.90;88.69
5298;BME280;14738;42.668;23.250;2023-07-31T02:55:39;48441.91;;;-141.90;87.89
5298;BME280;14738;42.668;23.250;2023-07-31T02:58:04;48433.97;;;-141.90;87.80
5298;BME280;14738;42.668;23.250;2023-07-31T03:00:30;48370.44;;;-141.90;87.44
5298;BME280;14738;42.668;23.250;2023-07-31T03:02:55;48422.06;;;-141.90;87.54
5298;BME280;14738;42.668;23.250;2023-07-31T03:05:20;48378.38;;;-141.90;88.03
5298;BME280;14738;42.668;23.250;2023-07-31T03:07:46;48418.09;;;-141.90;87.94
5298;BME280;14738;42.668;23.250;2023-07-31T03:10:11;48432.00;;;-141.90;87.89
5298;BME280;14738;42.668;23.250;2023-07-31T03:12:37;48418.09;;;-141.90;87.57
5298;BME280;14738;42.668;23.250;2023-07-31T03:15:02;48420.09;;;-141.90;88.20
5298;BME280;14738;42.668;23.250;2023-07-31T03:17:28;48420.09;;;-141.90;87.96
5298;BME280;14738;42.668;23.250;2023-07-31T03:19:53;48406.19;;;-141.90;87.86
5298;BME280;14738;42.668;23.250;2023-07-31T03:22:19;48426.03;;;-141.90;87.67
5298;BME280;14738;42.668;23.250;2023-07-31T03:24:44;48398.25;;;-141.90;87.13
5298;BME280;14738;42.668;23.250;2023-07-31T03:27:09;48443.91;;;-141.90;86.12
5298;BME280;14738;42.668;23.250;2023-07-31T03:29:35;48418.09;;;-141.90;87.25
5298;BME280;14738;42.668;23.250;2023-07-31T03:32:00;48408.16;;;-141.90;86.89
5298;BME280;14738;42.668;23.250;2023-07-31T03:34:26;48422.06;;;-141.90;86.17
5298;BME280;14738;42.668;23.250;2023-07-31T03:36:51;48406.19;;;-141.90;87.27
5298;BME280;14738;42.668;23.250;2023-07-31T03:39:17;48426.03;;;-141.90;86.85
5298;BME280;14738;42.668;23.250;2023-07-31T03:41:42;48402.22;;;-141.90;86.53
5298;BME280;14738;42.668;23.250;2023-07-31T03:44:08;48426.03;;;-141.90;86.79
5298;BME280;14738;42.668;23.250;2023-07-31T03:46:33;48443.91;;;-141.90;86.20
5298;BME280;14738;42.668;23.250;2023-07-31T03:48:59;48394.28;;;-141.90;86.11
5298;BME280;14738;42.668;23.250;2023-07-31T03:51:25;48424.06;;;-141.90;86.20
5298;BME280;14738;42.668;23.250;2023-07-31T03:53:50;48445.88;;;-141.90;85.73
5298;BME280;14738;42.668;23.250;2023-07-31T03:56:16;48422.06;;;-141.90;85.09
5298;BME280;14738;42.668;23.250;2023-07-31T03:58:41;48430.00;;;-141.90;84.89
5298;BME280;14738;42.668;23.250;2023-07-31T04:01:07;48382.34;;;-141.90;84.83
5298;BME280;14738;42.668;23.250;2023-07-31T04:03:32;48433.97;;;-141.90;84.86
5298;BME280;14738;42.668;23.250;2023-07-31T04:05:57;48433.97;;;-141.90;85.09
5298;BME280;14738;42.668;23.250;2023-07-31T04:08:23;48435.97;;;-141.90;83.76
5298;BME280;14738;42.668;23.250;2023-07-31T04:10:49;48435.97;;;-141.90;83.69
5298;BME280;14738;42.668;23.250;2023-07-31T04:13:14;48435.97;;;-141.90;83.63
5298;BME280;14738;42.668;23.250;2023-07-31T04:15:40;48408.16;;;-141.90;83.92
5298;BME280;14738;42.668;23.250;2023-07-31T04:18:06;48433.97;;;-141.90;83.42
5298;BME280;14738;42.668;23.250;2023-07-31T04:20:32;48445.88;;;-141.90;83.86
5298;BME280;14738;42.668;23.250;2023-07-31T04:22:57;48424.06;;;-141.90;82.54
5298;BME280;14738;42.668;23.250;2023-07-31T04:25:22;48424.06;;;-141.90;82.92
5298;BME280;14738;42.668;23.250;2023-07-31T04:27:48;48449.84;;;-141.90;82.13
5298;BME280;14738;42.668;23.250;2023-07-31T04:30:13;48469.72;;;-141.90;82.10
5298;BME280;14738;42.668;23.250;2023-07-31T04:32:39;48437.94;;;-141.90;81.63
5298;BME280;14738;42.668;23.250;2023-07-31T04:35:05;48457.81;;;-141.90;82.19
5298;BME280;14738;42.668;23.250;2023-07-31T04:37:30;48443.91;;;-141.90;80.66
5298;BME280;14738;42.668;23.250;2023-07-31T04:39:56;48441.91;;;-141.90;81.01
5298;BME280;14738;42.668;23.250;2023-07-31T04:42:22;48443.91;;;-141.90;79.95
5298;BME280;14738;42.668;23.250;2023-07-31T04:44:47;48465.75;;;-141.90;79.85
5298;BME280;14738;42.668;23.250;2023-07-31T04:47:12;48477.66;;;-141.90;76.49
5298;BME280;14738;42.668;23.250;2023-07-31T04:49:38;48499.50;;;-141.90;73.45
5298;BME280;14738;42.668;23.250;2023-07-31T04:52:04;48547.13;;;-141.90;66.14
5298;BME280;14738;42.668;23.250;2023-07-31T04:54:29;48592.81;;;-141.90;57.82
5298;BME280;14738;42.668;23.250;2023-07-31T04:56:55;48680.16;;;-141.90;52.53
5298;BME280;14738;42.668;23.250;2023-07-31T04:59:20;48733.75;;;-141.90;41.23
5298;BME280;14738;42.668;23.250;2023-07-31T05:01:46;48803.25;;;-141.90;37.77
5298;BME280;14738;42.668;23.250;2023-07-31T05:04:14;48874.72;;;-141.90;35.16
5298;BME280;14738;42.668;23.250;2023-07-31T05:06:41;48795.31;;;-141.90;37.18
5298;BME280;14738;42.668;23.250;2023-07-31T05:09:07;48707.94;;;-141.90;38.00
5298;BME280;14738;42.668;23.250;2023-07-31T05:11:34;48646.41;;;-141.90;39.95
5298;BME280;14738;42.668;23.250;2023-07-31T05:14:00;48608.69;;;-141.90;43.40
5298;BME280;14738;42.668;23.250;2023-07-31T05:16:25;48527.28;;;-141.90;44.71
5298;BME280;14738;42.668;23.250;2023-07-31T05:18:51;48517.34;;;-141.90;46.05
5298;BME280;14738;42.668;23.250;2023-07-31T05:21:16;48519.34;;;-141.90;48.04
5298;BME280;14738;42.668;23.250;2023-07-31T05:23:41;48493.53;;;-141.90;48.57
5298;BME280;14738;42.668;23.250;2023-07-31T05:26:07;48493.53;;;-141.90;48.13
5298;BME280;14738;42.668;23.250;2023-07-31T05:28:35;48531.25;;;-141.90;47.68
5298;BME280;14738;42.668;23.250;2023-07-31T05:31:02;48511.41;;;-141.90;47.21
5298;BME280;14738;42.668;23.250;2023-07-31T05:33:28;48529.28;;;-141.90;47.01
5298;BME280;14738;42.668;23.250;2023-07-31T05:35:53;48553.09;;;-141.90;45.29
5298;BME280;14738;42.668;23.250;2023-07-31T05:38:19;48686.13;;;-141.90;40.55
5298;BME280;14738;42.668;23.250;2023-07-31T05:40:44;48709.94;;;-141.90;38.23
5298;BME280;14738;42.668;23.250;2023-07-31T05:43:10;48672.22;;;-141.90;37.91
5298;BME280;14738;42.668;23.250;2023-07-31T05:45:35;48696.03;;;-141.90;38.05
5298;BME280;14738;42.668;23.250;2023-07-31T05:48:02;48783.41;;;-141.90;35.40
5298;BME280;14738;42.668;23.250;2023-07-31T05:50:28;48837.00;;;-141.90;33.58
5298;BME280;14738;42.668;23.250;2023-07-31T05:52:53;48731.78;;;-141.90;34.22
5298;BME280;14738;42.668;23.250;2023-07-31T05:55:18;48668.25;;;-141.90;37.85
5298;BME280;14738;42.668;23.250;2023-07-31T05:57:44;48636.47;;;-141.90;39.77
5298;BME280;14738;42.668;23.250;2023-07-31T06:00:12;48555.09;;;-141.90;41.15
5298;BME280;14738;42.668;23.250;2023-07-31T06:02:37;48622.59;;;-141.90;39.90
5298;BME280;14738;42.668;23.250;2023-07-31T06:05:04;48702.00;;;-141.90;36.71
5298;BME280;14738;42.668;23.250;2023-07-31T06:07:31;48707.94;;;-141.90;35.91
5298;BME280;14738;42.668;23.250;2023-07-31T06:09:57;48680.16;;;-141.90;36.80
5298;BME280;14738;42.668;23.250;2023-07-31T06:12:28;48636.47;;;-141.90;37.28
5298;BME280;14738;42.668;23.250;2023-07-31T06:14:53;48565.00;;;-141.90;37.93
5298;BME280;14738;42.668;23.250;2023-07-31T06:17:19;48576.91;;;-141.90;38.42
5298;BME280;14738;42.668;23.250;2023-07-31T06:19:44;48608.69;;;-141.90;38.44
5298;BME280;14738;42.668;23.250;2023-07-31T06:22:10;48565.00;;;-141.90;38.83
5298;BME280;14738;42.668;23.250;2023-07-31T06:24:35;48555.09;;;-141.90;39.00
5298;BME280;14738;42.668;23.250;2023-07-31T06:27:01;48580.88;;;-141.90;39.75
5298;BME280;14738;42.668;23.250;2023-07-31T06:29:29;48563.03;;;-141.90;40.32
5298;BME280;14738;42.668;23.250;2023-07-31T06:31:55;48565.00;;;-141.90;40.60
5298;BME280;14738;42.668;23.250;2023-07-31T06:34:20;48574.94;;;-141.90;40.94
5298;BME280;14738;42.668;23.250;2023-07-31T06:36:46;48604.72;;;-141.90;39.77
5298;BME280;14738;42.668;23.250;2023-07-31T06:39:12;48539.19;;;-141.90;40.46
5298;BME280;14738;42.668;23.250;2023-07-31T06:41:38;48592.81;;;-141.90;39.26
5298;BME280;14738;42.668;23.250;2023-07-31T06:44:04;48682.13;;;-141.90;36.99
5298;BME280;14738;42.668;23.250;2023-07-31T06:46:29;48805.25;;;-141.90;33.49
5298;BME280;14738;42.668;23.250;2023-07-31T06:48:55;48807.22;;;-141.90;33.12
5298;BME280;14738;42.668;23.250;2023-07-31T06:51:20;48783.41;;;-141.90;33.80
5298;BME280;14738;42.668;23.250;2023-07-31T06:53:46;48692.06;;;-141.90;32.86
5298;BME280;14738;42.668;23.250;2023-07-31T06:56:12;48862.81;;;-141.90;31.53
5298;BME280;14738;42.668;23.250;2023-07-31T06:58:37;48870.75;;;-141.90;31.17
5298;BME280;14738;42.668;23.250;2023-07-31T07:01:03;48870.75;;;-141.90;31.93
5298;BME280;14738;42.668;23.250;2023-07-31T07:03:28;48848.91;;;-141.90;31.85
5298;BME280;14738;42.668;23.250;2023-07-31T07:05:54;48910.47;;;-141.90;30.67
5298;BME280;14738;42.668;23.250;2023-07-31T07:08:19;48850.91;;;-141.90;30.21
5298;BME280;14738;42.668;23.250;2023-07-31T07:10:45;48862.81;;;-141.90;31.14
5298;BME280;14738;42.668;23.250;2023-07-31T07:13:10;48848.91;;;-141.90;30.97
5298;BME280;14738;42.668;23.250;2023-07-31T07:15:37;48795.31;;;-141.90;31.67
5298;BME280;14738;42.668;23.250;2023-07-31T07:18:03;48757.59;;;-141.90;32.67
5298;BME280;14738;42.668;23.250;2023-07-31T07:20:28;48775.47;;;-141.90;31.76
5298;BME280;14738;42.668;23.250;2023-07-31T07:22:54;48815.16;;;-141.90;33.38
5298;BME280;14738;42.668;23.250;2023-07-31T07:25:19;48831.03;;;-141.90;31.49
5298;BME280;14738;42.668;23.250;2023-07-31T07:27:45;48787.38;;;-141.90;31.17
5298;BME280;14738;42.668;23.250;2023-07-31T07:30:10;48833.03;;;-141.90;31.12
5298;BME280;14738;42.668;23.250;2023-07-31T07:32:36;48842.97;;;-141.90;30.89
5298;BME280;14738;42.668;23.250;2023-07-31T07:35:01;48797.28;;;-141.90;31.67
5298;BME280;14738;42.668;23.250;2023-07-31T07:37:26;48711.91;;;-141.90;32.51
5298;BME280;14738;42.668;23.250;2023-07-31T07:39:54;48700.00;;;-141.90;33.60
5298;BME280;14738;42.668;23.250;2023-07-31T07:42:22;48692.06;;;-141.90;34.58
5298;BME280;14738;42.668;23.250;2023-07-31T07:44:47;48654.34;;;-141.90;35.09
5298;BME280;14738;42.668;23.250;2023-07-31T07:47:13;48735.75;;;-141.90;33.80
5298;BME280;14738;42.668;23.250;2023-07-31T07:49:38;48688.09;;;-141.90;34.12
5298;BME280;14738;42.668;23.250;2023-07-31T07:52:04;48640.44;;;-141.90;34.87
5298;BME280;14738;42.668;23.250;2023-07-31T07:54:30;48686.13;;;-141.90;34.87
5298;BME280;14738;42.668;23.250;2023-07-31T07:56:56;48735.75;;;-141.90;33.33
5298;BME280;14738;42.668;23.250;2023-07-31T07:59:21;48723.84;;;-141.90;34.10
5298;BME280;14738;42.668;23.250;2023-07-31T08:01:47;48709.94;;;-141.90;32.93
5298;BME280;14738;42.668;23.250;2023-07-31T08:04:12;48727.81;;;-141.90;33.79
5298;BME280;14738;42.668;23.250;2023-07-31T08:06:38;48715.91;;;-141.90;33.15
5298;BME280;14738;42.668;23.250;2023-07-31T08:09:03;48692.06;;;-141.90;33.58
5298;BME280;14738;42.668;23.250;2023-07-31T08:11:35;48703.97;;;-141.90;34.32
5298;BME280;14738;42.668;23.250;2023-07-31T08:14:00;48656.34;;;-141.90;34.87
5298;BME280;14738;42.668;23.250;2023-07-31T08:16:26;48690.09;;;-141.90;34.22
5298;BME280;14738;42.668;23.250;2023-07-31T08:18:51;48715.91;;;-141.90;33.36
5298;BME280;14738;42.668;23.250;2023-07-31T08:21:17;48688.09;;;-141.90;33.15
5298;BME280;14738;42.668;23.250;2023-07-31T08:23:42;48684.13;;;-141.90;32.97
5298;BME280;14738;42.668;23.250;2023-07-31T08:26:08;48686.13;;;-141.90;33.68
5298;BME280;14738;42.668;23.250;2023-07-31T08:28:33;48684.13;;;-141.90;33.08
5298;BME280;14738;42.668;23.250;2023-07-31T08:31:00;48672.22;;;-141.90;33.00
5298;BME280;14738;42.668;23.250;2023-07-31T08:33:25;48680.16;;;-141.90;33.44
5298;BME280;14738;42.668;23.250;2023-07-31T08:35:50;48680.16;;;-141.90;34.48
5298;BME280;14738;42.668;23.250;2023-07-31T08:38:16;48694.06;;;-141.90;33.80
5298;BME280;14738;42.668;23.250;2023-07-31T08:40:41;48690.09;;;-141.90;33.78
5298;BME280;14738;42.668;23.250;2023-07-31T08:43:08;48684.13;;;-141.90;32.78
5298;BME280;14738;42.668;23.250;2023-07-31T08:45:34;48662.28;;;-141.90;34.38
5298;BME280;14738;42.668;23.250;2023-07-31T08:48:00;48680.16;;;-141.90;34.13
5298;BME280;14738;42.668;23.250;2023-07-31T08:50:25;48684.13;;;-141.90;33.07
5298;BME280;14738;42.668;23.250;2023-07-31T08:52:52;48709.94;;;-141.90;33.83
5298;BME280;14738;42.668;23.250;2023-07-31T08:55:18;48676.19;;;-141.90;32.50
5298;BME280;14738;42.668;23.250;2023-07-31T08:57:50;48715.91;;;-141.90;32.47
5298;BME280;14738;42.668;23.250;2023-07-31T09:00:16;48707.94;;;-141.90;31.54
5298;BME280;14738;42.668;23.250;2023-07-31T09:03:03;48723.84;;;-141.90;32.58
5298;BME280;14738;42.668;23.250;2023-07-31T09:05:30;48715.91;;;-141.90;31.62
5298;BME280;14738;42.668;23.250;2023-07-31T09:07:57;48703.97;;;-141.90;31.37
5298;BME280;14738;42.668;23.250;2023-07-31T09:10:23;48676.19;;;-141.90;33.17
5298;BME280;14738;42.668;23.250;2023-07-31T09:12:50;48731.78;;;-141.90;32.75
5298;BME280;14738;42.668;23.250;2023-07-31T09:15:16;48755.59;;;-141.90;32.40
5298;BME280;14738;42.668;23.250;2023-07-31T09:17:42;48779.44;;;-141.90;30.69
5298;BME280;14738;42.668;23.250;2023-07-31T09:20:21;48692.06;;;-141.90;31.83
5298;BME280;14738;42.668;23.250;2023-07-31T09:22:47;48664.28;;;-141.90;33.31
5298;BME280;14738;42.668;23.250;2023-07-31T09:25:26;48694.06;;;-141.90;32.68
5298;BME280;14738;42.668;23.250;2023-07-31T09:27:57;48715.91;;;-141.90;33.28
5298;BME280;14738;42.668;23.250;2023-07-31T09:30:23;48715.91;;;-141.90;33.66
5298;BME280;14738;42.668;23.250;2023-07-31T09:32:50;48719.88;;;-141.90;32.78
5298;BME280;14738;42.668;23.250;2023-07-31T09:35:19;48757.59;;;-141.90;32.17
5298;BME280;14738;42.668;23.250;2023-07-31T09:37:59;48737.72;;;-141.90;30.99
5298;BME280;14738;42.668;23.250;2023-07-31T09:40:32;48737.72;;;-141.90;32.10
5298;BME280;14738;42.668;23.250;2023-07-31T09:43:00;48715.91;;;-141.90;32.67
5298;BME280;14738;42.668;23.250;2023-07-31T09:45:26;48739.72;;;-141.90;33.03
5298;BME280;14738;42.668;23.250;2023-07-31T09:47:53;48735.75;;;-141.90;31.72
5298;BME280;14738;42.668;23.250;2023-07-31T09:50:24;48793.31;;;-141.90;30.22
5298;BME280;14738;42.668;23.250;2023-07-31T09:52:50;48765.53;;;-141.90;30.83
5298;BME280;14738;42.668;23.250;2023-07-31T09:55:17;48727.81;;;-141.90;32.20
5298;BME280;14738;42.668;23.250;2023-07-31T09:57:47;48690.09;;;-141.90;31.69
5298;BME280;14738;42.668;23.250;2023-07-31T10:00:15;48755.59;;;-141.90;31.52
5298;BME280;14738;42.668;23.250;2023-07-31T10:02:40;48781.41;;;-141.90;30.97
5298;BME280;14738;42.668;23.250;2023-07-31T10:05:07;48767.50;;;-141.90;31.72
5298;BME280;14738;42.668;23.250;2023-07-31T10:07:39;48779.44;;;-141.90;30.35
5298;BME280;14738;42.668;23.250;2023-07-31T10:10:08;48761.56;;;-141.90;29.42
5298;BME280;14738;42.668;23.250;2023-07-31T10:12:35;48811.19;;;-141.90;31.02
5298;BME280;14738;42.668;23.250;2023-07-31T10:15:01;48803.25;;;-141.90;29.83
5298;BME280;14738;42.668;23.250;2023-07-31T10:17:29;48735.75;;;-141.90;29.58
5298;BME280;14738;42.668;23.250;2023-07-31T10:19:56;48721.84;;;-141.90;30.59
5298;BME280;14738;42.668;23.250;2023-07-31T10:22:23;48729.78;;;-141.90;29.64
5298;BME280;14738;42.668;23.250;2023-07-31T10:24:50;48779.44;;;-141.90;30.19
5298;BME280;14738;42.668;23.250;2023-07-31T10:27:17;48747.66;;;-141.90;29.44
5298;BME280;14738;42.668;23.250;2023-07-31T10:29:43;48803.25;;;-141.90;28.71
5298;BME280;14738;42.668;23.250;2023-07-31T10:32:13;48741.69;;;-141.90;29.76
5298;BME280;14738;42.668;23.250;2023-07-31T10:34:40;48723.84;;;-141.90;30.15
5298;BME280;14738;42.668;23.250;2023-07-31T10:37:36;48753.63;;;-141.90;29.38
5298;BME280;14738;42.668;23.250;2023-07-31T10:40:19;48751.63;;;-141.90;29.07
5298;BME280;14738;42.668;23.250;2023-07-31T10:42:54;48779.44;;;-141.90;29.26
5298;BME280;14738;42.668;23.250;2023-07-31T10:45:32;48757.59;;;-141.90;28.92
5298;BME280;14738;42.668;23.250;2023-07-31T10:48:02;48715.91;;;-141.90;29.06
5298;BME280;14738;42.668;23.250;2023-07-31T10:50:28;48747.66;;;-141.90;28.87
5298;BME280;14738;42.668;23.250;2023-07-31T10:52:56;48727.81;;;-141.90;28.71
5298;BME280;14738;42.668;23.250;2023-07-31T10:57:51;48721.84;;;-141.90;28.71
5298;BME280;14738;42.668;23.250;2023-07-31T11:00:27;48763.53;;;-141.90;27.65
5298;BME280;14738;42.668;23.250;2023-07-31T11:03:14;48763.53;;;-141.90;27.69
5298;BME280;14738;42.668;23.250;2023-07-31T11:05:45;48789.34;;;-141.90;27.64
5298;BME280;14738;42.668;23.250;2023-07-31T11:10:38;48779.44;;;-141.90;26.97
5298;BME280;14738;42.668;23.250;2023-07-31T11:13:06;48765.53;;;-141.90;27.09
5298;BME280;14738;42.668;23.250;2023-07-31T11:15:32;48733.75;;;-141.90;27.34
5298;BME280;14738;42.668;23.250;2023-07-31T11:17:57;48767.50;;;-141.90;26.30
5298;BME280;14738;42.668;23.250;2023-07-31T11:20:25;48803.25;;;-141.90;27.00
5298;BME280;14738;42.668;23.250;2023-07-31T11:22:51;48846.94;;;-141.90;26.32
5298;BME280;14738;42.668;23.250;2023-07-31T11:25:17;48882.66;;;-141.90;25.65
5298;BME280;14738;42.668;23.250;2023-07-31T11:27:43;48825.09;;;-141.90;26.78
5298;BME280;14738;42.668;23.250;2023-07-31T11:30:09;48779.44;;;-141.90;27.80
5298;BME280;14738;42.668;23.250;2023-07-31T11:32:38;48775.47;;;-141.90;27.18
5298;BME280;14738;42.668;23.250;2023-07-31T11:35:03;48737.72;;;-141.90;27.85
5298;BME280;14738;42.668;23.250;2023-07-31T11:37:44;48757.59;;;-141.90;28.49
5298;BME280;14738;42.668;23.250;2023-07-31T11:40:10;48755.59;;;-141.90;28.51
5298;BME280;14738;42.668;23.250;2023-07-31T11:42:36;48775.47;;;-141.90;27.73
5298;BME280;14738;42.668;23.250;2023-07-31T11:45:05;48789.34;;;-141.90;28.67
5298;BME280;14738;42.668;23.250;2023-07-31T11:47:35;48767.50;;;-141.90;27.80
5298;BME280;14738;42.668;23.250;2023-07-31T11:50:03;48743.69;;;-141.90;27.77
5298;BME280;14738;42.668;23.250;2023-07-31T11:52:33;48767.50;;;-141.90;28.14
5298;BME280;14738;42.668;23.250;2023-07-31T11:54:59;48795.31;;;-141.90;28.23
5298;BME280;14738;42.668;23.250;2023-07-31T11:57:26;48807.22;;;-141.90;27.84
5298;BME280;14738;42.668;23.250;2023-07-31T11:59:52;48795.31;;;-141.90;27.60
5298;BME280;14738;42.668;23.250;2023-07-31T12:02:18;48773.47;;;-141.90;28.55
5298;BME280;14738;42.668;23.250;2023-07-31T12:04:45;48779.44;;;-141.90;27.75
5298;BME280;14738;42.668;23.250;2023-07-31T12:07:11;48793.31;;;-141.90;27.47
5298;BME280;14738;42.668;23.250;2023-07-31T12:09:50;48745.69;;;-141.90;28.13
5298;BME280;14738;42.668;23.250;2023-07-31T12:12:20;48795.31;;;-141.90;28.33
5298;BME280;14738;42.668;23.250;2023-07-31T12:14:45;48809.22;;;-141.90;28.47
5298;BME280;14738;42.668;23.250;2023-07-31T12:17:11;48819.13;;;-141.90;27.23
5298;BME280;14738;42.668;23.250;2023-07-31T12:19:36;48862.81;;;-141.90;28.51
5298;BME280;14738;42.668;23.250;2023-07-31T12:22:11;48815.16;;;-141.90;27.72
5298;BME280;14738;42.668;23.250;2023-07-31T12:24:37;48755.59;;;-141.90;28.04
5298;BME280;14738;42.668;23.250;2023-07-31T12:27:11;48783.41;;;-141.90;28.66
5298;BME280;14738;42.668;23.250;2023-07-31T12:29:38;48741.69;;;-141.90;27.86
5298;BME280;14738;42.668;23.250;2023-07-31T12:32:05;48743.69;;;-141.90;27.89
5298;BME280;14738;42.668;23.250;2023-07-31T12:34:43;48719.88;;;-141.90;28.00
5298;BME280;14738;42.668;23.250;2023-07-31T12:37:08;48779.44;;;-141.90;27.70
5298;BME280;14738;42.668;23.250;2023-07-31T12:39:34;48765.53;;;-141.90;27.55
5298;BME280;14738;42.668;23.250;2023-07-31T12:41:59;48811.19;;;-141.90;27.80
5298;BME280;14738;42.668;23.250;2023-07-31T12:44:25;48749.66;;;-141.90;27.25
5298;BME280;14738;42.668;23.250;2023-07-31T12:46:50;48771.47;;;-141.90;27.73
5298;BME280;14738;42.668;23.250;2023-07-31T12:49:15;48755.59;;;-141.90;28.45
5298;BME280;14738;42.668;23.250;2023-07-31T12:51:41;48751.63;;;-141.90;28.57